ADDS METAR Data INFO
IDs: Format: Raw Decoded Include TAF

Data at: 0315 UTC 20 Jul 2018

KGOO 200300Z AUTO 00000KT 10SM CLR 30/10 A3000 RMK AO1
KGOO 200240Z AUTO 00000KT 10SM CLR 31/10 A3000 RMK AO1
KGOO 200220Z AUTO 22003KT 10SM CLR 31/09 A3000 RMK AO1
KGOO 200200Z AUTO 00000KT 10SM CLR 32/10 A3000 RMK AO1
KGOO 200140Z AUTO 24005KT 10SM CLR 32/10 A3000 RMK AO1
KGOO 200120Z AUTO 26005KT 10SM CLR 32/11 A3000 RMK AO1
KGOO 200100Z AUTO 24007KT 10SM CLR 33/11 A3000 RMK AO1
KGOO 200040Z AUTO 24003KT 10SM CLR 33/11 A3001 RMK AO1
KGOO 200020Z AUTO 25005KT 10SM CLR 34/09 A3001 RMK AO1
KGOO 200000Z AUTO 30004KT 10SM CLR 34/09 A3001 RMK AO1
KGOO 192340Z AUTO 33006KT 10SM CLR 34/09 A3001 RMK AO1
KGOO 192320Z AUTO 32006KT 10SM CLR 34/08 A3001 RMK AO1
KGOO 192300Z AUTO 30005KT 10SM CLR 34/08 A3002 RMK AO1
KGOO 192240Z AUTO 34006KT 10SM CLR 34/10 A3002 RMK AO1
KGOO 192220Z AUTO 34006KT 10SM CLR 34/10 A3003 RMK AO1
KGOO 192200Z AUTO 26006KT 10SM CLR 34/10 A3003 RMK AO1
KGOO 192140Z AUTO 28009KT 220V310 10SM CLR 33/09 A3004 RMK AO1
KGOO 192120Z AUTO 30004KT 10SM CLR 33/09 A3005 RMK AO1
KGOO 192100Z AUTO 27004KT 10SM CLR 34/10 A3006 RMK AO1
KGOO 192040Z AUTO 26005KT 10SM CLR 33/11 A3006 RMK AO1
KGOO 192020Z AUTO 28006KT 10SM CLR 33/12 A3007 RMK AO1
KGOO 192000Z AUTO 30004KT 10SM CLR 33/11 A3007 RMK AO1
KGOO 191940Z AUTO 28004KT 10SM CLR 32/10 A3007 RMK AO1
KGOO 191920Z AUTO 29007KT 10SM CLR 33/11 A3007 RMK AO1
KGOO 191900Z AUTO 28007KT 10SM CLR 32/10 A3008 RMK AO1
KGOO 191840Z AUTO 30006KT 10SM CLR 32/10 A3008 RMK AO1
KGOO 191820Z AUTO 23004KT 10SM CLR 32/10 A3008 RMK AO1
KGOO 191800Z AUTO 27005KT 10SM CLR 32/10 A3008 RMK AO1
KGOO 191740Z AUTO 26003KT 10SM CLR 31/10 A3008 RMK AO1
KGOO 191720Z AUTO 29004KT 10SM CLR 31/10 A3008 RMK AO1
KGOO 191700Z AUTO 00000KT 10SM CLR 30/10 A3008 RMK AO1
KGOO 191640Z AUTO 00000KT 10SM CLR 30/09 A3008 RMK AO1
KGOO 191620Z AUTO 00000KT 10SM CLR 30/09 A3008 RMK AO1
KGOO 191600Z AUTO 00000KT 10SM CLR 30/10 A3007 RMK AO1
KGOO 191540Z AUTO 00000KT 10SM CLR 29/12 A3007 RMK AO1
KGOO 191520Z AUTO 00000KT 10SM CLR 29/11 A3007 RMK AO1
KGOO 191500Z AUTO 00000KT 10SM CLR 29/12 A3006 RMK AO1
KGOO 191440Z AUTO 00000KT 10SM CLR 28/11 A3006 RMK AO1
KGOO 191420Z AUTO 00000KT 10SM CLR 27/10 A3006 RMK AO1
KGOO 191350Z AUTO 00000KT 10SM CLR 26/08 A3005 RMK AO1
KGOO 191335Z AUTO 00000KT 10SM CLR 25/07 A3005 RMK AO1
KGOO 191315Z AUTO 00000KT 10SM CLR 25/07 A3004 RMK AO1
KGOO 191255Z AUTO 00000KT 10SM CLR 25/07 A3004 RMK AO1
KGOO 191235Z AUTO 00000KT 10SM CLR 25/08 A3005 RMK AO1
KGOO 191215Z AUTO 00000KT 10SM CLR 25/07 A3005 RMK AO1
KGOO 191155Z AUTO 09003KT 10SM CLR 26/08 A3005 RMK AO1
KGOO 191135Z AUTO 09005KT 10SM CLR 26/08 A3005 RMK AO1
KGOO 191115Z AUTO 09005KT 10SM CLR 27/08 A3005 RMK AO1
KGOO 191055Z AUTO 10005KT 10SM CLR 27/09 A3005 RMK AO1
KGOO 191035Z AUTO 09005KT 10SM CLR 25/09 A3005 RMK AO1
KGOO 191015Z AUTO 09005KT 10SM CLR 25/09 A3005 RMK AO1
KGOO 190955Z AUTO 10004KT 10SM CLR 27/09 A3006 RMK AO1
KGOO 190935Z AUTO 10005KT 10SM CLR 27/09 A3006 RMK AO1
KGOO 190915Z AUTO 10006KT 10SM CLR 27/09 A3007 RMK AO1
KGOO 190855Z AUTO 10005KT 10SM CLR 26/10 A3007 RMK AO1
KGOO 190835Z AUTO 11005KT 10SM CLR 27/09 A3007 RMK AO1
KGOO 190815Z AUTO 11005KT 10SM CLR 27/10 A3007 RMK AO1
KGOO 190755Z AUTO 11005KT 10SM CLR 26/10 A3007 RMK AO1
KGOO 190735Z AUTO 11005KT 10SM CLR 27/10 A3008 RMK AO1
KGOO 190715Z AUTO 13004KT 10SM CLR 27/10 A3007 RMK AO1
KGOO 190655Z AUTO 13003KT 10SM CLR 25/11 A3007 RMK AO1
KGOO 190635Z AUTO 00000KT 10SM CLR 26/11 A3007 RMK AO1
KGOO 190615Z AUTO 00000KT 10SM CLR 26/11 A3007 RMK AO1
KGOO 190555Z AUTO 00000KT 10SM CLR 26/11 A3006 RMK AO1
KGOO 190535Z AUTO 00000KT 10SM CLR 26/10 A3007 RMK AO1
KGOO 190515Z AUTO 00000KT 10SM CLR 27/11 A3007 RMK AO1
KGOO 190455Z AUTO 00000KT 10SM CLR 27/10 A3007 RMK AO1
KGOO 190435Z AUTO 00000KT 10SM CLR 28/10 A3006 RMK AO1
KGOO 190415Z AUTO 00000KT 10SM CLR 28/10 A3005 RMK AO1
KGOO 190355Z AUTO 00000KT 10SM CLR 28/12 A3005 RMK AO1
KGOO 190335Z AUTO 00000KT 10SM CLR 29/11 A3005 RMK AO1
KGOO 190315Z AUTO 00000KT 10SM CLR 30/11 A3005 RMK AO1
KGOO 190255Z AUTO 00000KT 10SM CLR 32/11 A3005 RMK AO1
KGOO 190235Z AUTO 00000KT 10SM CLR 33/10 A3005 RMK AO1
KGOO 190215Z AUTO 33003KT 10SM CLR 33/10 A3005 RMK AO1
KGOO 190155Z AUTO 30003KT 10SM CLR 33/10 A3005 RMK AO1
KGOO 190135Z AUTO 30006KT 10SM CLR 33/09 A3005 RMK AO1
KGOO 190115Z AUTO 32005KT 10SM CLR 34/09 A3006 RMK AO1
KGOO 190055Z AUTO 27004KT 10SM CLR 34/08 A3006 RMK AO1
KGOO 190035Z AUTO 27005KT 10SM CLR 34/08 A3007 RMK AO1
KGOO 190015Z AUTO 31003KT 10SM CLR 34/08 A3007 RMK AO1
KGOO 182355Z AUTO 26004KT 10SM CLR 34/07 A3007 RMK AO1
KGOO 182335Z AUTO 28006KT 10SM CLR 34/07 A3007 RMK AO1
KGOO 182315Z AUTO 27004KT 10SM CLR 35/08 A3008 RMK AO1
KGOO 182255Z AUTO 00000KT 10SM CLR 35/07 A3008 RMK AO1
KGOO 182235Z AUTO 30005KT 10SM CLR 34/08 A3009 RMK AO1
KGOO 182215Z AUTO 26004KT 10SM CLR 34/07 A3009 RMK AO1
KGOO 182155Z AUTO 31004KT 10SM CLR 34/07 A3009 RMK AO1
KGOO 182135Z AUTO 32005KT 10SM CLR 33/07 A3010 RMK AO1
KGOO 182115Z AUTO 28005KT 10SM CLR 34/08 A3010 RMK AO1
KGOO 182055Z AUTO 26006KT 10SM CLR 34/08 A3010 RMK AO1
KGOO 182035Z AUTO 31005KT 10SM CLR 33/09 A3011 RMK AO1
KGOO 182015Z AUTO 24004KT 10SM CLR 34/08 A3011 RMK AO1
KGOO 181955Z AUTO 28005KT 10SM CLR 34/08 A3012 RMK AO1
KGOO 181935Z AUTO 27006KT 10SM CLR 33/08 A3012 RMK AO1
KGOO 181915Z AUTO 26004KT 10SM CLR 33/07 A3012 RMK AO1
KGOO 181855Z AUTO 28003KT 10SM CLR 32/07 A3012 RMK AO1
KGOO 181835Z AUTO 29004KT 10SM CLR 32/07 A3012 RMK AO1
KGOO 181815Z AUTO 00000KT 10SM CLR 31/07 A3012 RMK AO1
KGOO 181755Z AUTO 31003KT 10SM CLR 31/07 A3013 RMK AO1
KGOO 181735Z AUTO 00000KT 10SM CLR 31/05 A3012 RMK AO1
KGOO 181715Z AUTO 31003KT 10SM CLR 30/08 A3012 RMK AO1
KGOO 181655Z AUTO 00000KT 10SM CLR 30/08 A3012 RMK AO1
KGOO 181635Z AUTO 01003KT 10SM CLR 30/07 A3012 RMK AO1
KGOO 181615Z AUTO 01004KT 10SM CLR 29/08 A3012 RMK AO1
KGOO 181555Z AUTO 00000KT 10SM CLR 29/07 A3012 RMK AO1
KGOO 181535Z AUTO 00000KT 10SM CLR 29/08 A3011 RMK AO1